Time;durP1;ratioP1;P1;durP2;ratioP2;P2;SDS_P1;SDS_P2;PMS_P1;PMS_P2;Temp;Humidity;BMP_temperature;BMP_pressure;BME280_temperature;BME280_humidity;BME280_pressure;Samples;Min_cycle;Max_cycle;Signal;HPM_P1;HPM_P2
2022/10/14 00:01:55;;;;;;;9.13;3.85;;;;;;;12.61;55.03;95176.69;5133438;27;20056;-72
2022/10/14 00:04:20;;;;;;;5.97;4.32;;;;;;;12.58;55.04;95166.53;5116067;27;20508;-72
2022/10/14 00:06:46;;;;;;;7.88;4.57;;;;;;;12.57;55.21;95159.66;5134441;27;20491;-72
2022/10/14 00:09:11;;;;;;;7.70;4.38;;;;;;;12.56;55.29;95150.19;5134545;27;20043;-75
2022/10/14 00:11:37;;;;;;;5.93;3.60;;;;;;;12.51;55.48;95151.41;5099013;27;20027;-72
2022/10/14 00:14:07;;;;;;;4.63;3.17;;;;;;;12.56;55.54;95160.59;5133160;27;20035;-72
2022/10/14 00:16:36;;;;;;;4.45;3.30;;;;;;;12.45;55.65;95132.84;5133250;27;20023;-72
2022/10/14 00:19:01;;;;;;;6.03;3.40;;;;;;;12.53;55.64;95154.69;5115963;27;20053;-72
2022/10/14 00:21:27;;;;;;;4.75;3.30;;;;;;;12.50;55.90;95149.75;5133014;27;20023;-73
2022/10/14 00:23:53;;;;;;;4.85;3.10;;;;;;;12.48;56.07;95143.88;5132917;27;20046;-72
2022/10/14 00:26:19;;;;;;;4.57;3.15;;;;;;;12.51;55.82;95145.38;5132997;27;20028;-72
2022/10/14 00:28:44;;;;;;;4.78;3.05;;;;;;;12.49;56.09;95148.09;5134092;27;20019;-72
2022/10/14 00:31:10;;;;;;;6.20;3.05;;;;;;;12.47;56.79;95147.41;5131970;27;20019;-72
2022/10/14 00:33:35;;;;;;;5.05;3.60;;;;;;;12.37;56.76;95151.75;5120701;27;20020;-72
2022/10/14 00:36:02;;;;;;;5.53;2.83;;;;;;;12.26;56.83;95152.66;5079905;28;20039;-72
2022/10/14 00:38:28;;;;;;;4.07;2.75;;;;;;;12.29;57.19;95151.59;5093254;28;20020;-72
2022/10/14 00:40:53;;;;;;;5.03;2.63;;;;;;;12.18;57.46;95147.28;5113181;28;20039;-72
2022/10/14 00:43:19;;;;;;;4.45;2.65;;;;;;;12.12;57.60;95139.97;5112135;28;20036;-72
2022/10/14 00:45:45;;;;;;;4.68;2.65;;;;;;;12.26;57.50;95147.47;5095280;28;20036;-72
2022/10/14 00:48:10;;;;;;;4.03;2.55;;;;;;;12.29;57.65;95141.97;5094933;28;20027;-72
2022/10/14 00:50:36;;;;;;;3.90;2.40;;;;;;;12.26;58.41;95144.03;5094712;28;20052;-72
2022/10/14 00:53:02;;;;;;;5.68;2.58;;;;;;;12.26;58.37;95147.47;5113124;28;20525;-73
2022/10/14 00:55:27;;;;;;;3.85;2.30;;;;;;;12.24;58.60;95138.13;5095089;28;20035;-72
2022/10/14 00:57:53;;;;;;;3.83;2.35;;;;;;;12.19;58.39;95141.09;5111782;28;20028;-72
2022/10/14 01:00:18;;;;;;;3.13;2.10;;;;;;;12.21;58.16;95135.78;5112709;28;20040;-72
2022/10/14 01:02:44;;;;;;;3.45;2.10;;;;;;;12.22;58.38;95116.56;5110697;28;20107;-72
2022/10/14 01:05:11;;;;;;;5.35;2.20;;;;;;;12.15;58.99;95128.47;5111729;28;20063;-72
2022/10/14 01:07:38;;;;;;;3.88;2.10;;;;;;;12.29;58.85;95125.53;5094630;28;20027;-73
2022/10/14 01:10:16;;;;;;;3.30;2.13;;;;;;;12.14;58.72;95127.63;5094474;28;20421;-72
2022/10/14 01:13:08;;;;;;;3.42;2.05;;;;;;;12.25;58.68;95124.13;5112759;28;20081;-72
2022/10/14 01:15:45;;;;;;;3.95;2.33;;;;;;;12.16;58.88;95110.09;5104724;28;20127;-72
2022/10/14 01:18:29;;;;;;;6.57;2.50;;;;;;;12.18;59.05;95105.59;5111399;28;20148;-72
2022/10/14 01:21:09;;;;;;;5.20;1.73;;;;;;;12.17;59.37;95105.72;5111147;28;20028;-72
2022/10/14 01:23:43;;;;;;;2.95;1.70;;;;;;;12.19;59.46;95091.63;5111240;28;20023;-72
2022/10/14 01:26:21;;;;;;;2.80;1.83;;;;;;;12.07;59.91;95093.47;5111128;28;20493;-72
2022/10/14 01:29:13;;;;;;;2.63;1.80;;;;;;;12.02;60.28;95085.22;5078613;28;20090;-72
2022/10/14 01:31:43;;;;;;;3.83;2.00;;;;;;;12.03;60.29;95083.44;5076112;28;20082;-72
2022/10/14 01:34:09;;;;;;;3.20;1.65;;;;;;;11.88;60.76;95085.56;5090656;28;20036;-72
2022/10/14 01:37:10;;;;;;;3.08;1.77;;;;;;;11.97;60.64;95094.38;5090602;28;20063;-72
2022/10/14 01:39:37;;;;;;;;;;;;;;;12.01;60.84;95101.81;5087583;28;20105;-72
2022/10/14 01:42:13;;;;;;;3.42;1.48;;;;;;;11.94;61.09;95082.44;5090577;28;20419;-72
2022/10/14 01:44:40;;;;;;;4.47;1.80;;;;;;;11.96;61.08;95090.97;5090611;28;20032;-72
2022/10/14 01:47:05;;;;;;;3.35;1.67;;;;;;;11.91;60.94;95079.28;5073779;28;20034;-72
2022/10/14 01:49:40;;;;;;;3.55;1.85;;;;;;;11.96;60.89;95077.13;5073211;28;20048;-72
2022/10/14 01:52:18;;;;;;;2.70;1.67;;;;;;;11.94;61.34;95077.25;5110039;28;20081;-72
2022/10/14 01:54:44;;;;;;;3.55;1.80;;;;;;;12.01;61.25;95081.00;5093055;28;20032;-72
2022/10/14 01:57:16;;;;;;;5.15;1.70;;;;;;;11.94;61.51;95074.63;5093487;28;20080;-73
2022/10/14 01:59:41;;;;;;;4.30;1.63;;;;;;;11.81;61.54;95056.59;5093389;28;20035;-72
2022/10/14 02:02:07;;;;;;;2.95;1.65;;;;;;;11.76;61.78;95060.53;5093143;28;20028;-72
2022/10/14 02:04:32;;;;;;;4.80;1.73;;;;;;;11.72;62.31;95087.75;5111414;28;20057;-72
2022/10/14 02:07:03;;;;;;;3.17;1.80;;;;;;;11.73;62.48;95084.19;5111454;28;20042;-72
2022/10/14 02:09:40;;;;;;;2.47;1.65;;;;;;;11.81;62.50;95076.56;5111621;28;20111;-73
2022/10/14 02:12:36;;;;;;;4.25;1.60;;;;;;;11.81;62.48;95079.19;5110105;28;20110;-72
2022/10/14 02:15:26;;;;;;;3.65;1.55;;;;;;;11.76;62.61;95076.97;5092470;28;20412;-72
2022/10/14 02:18:04;;;;;;;2.67;1.55;;;;;;;11.87;62.49;95068.31;5110228;28;20031;-72
2022/10/14 02:20:32;;;;;;;4.32;1.70;;;;;;;11.80;62.65;95056.72;5110330;28;20046;-72
2022/10/14 02:23:01;;;;;;;5.00;1.80;;;;;;;11.68;62.72;95042.97;5093179;28;20438;-72
2022/10/14 02:25:31;;;;;;;3.97;1.67;;;;;;;11.97;62.37;95073.56;5090069;28;20065;-72
2022/10/14 02:27:57;;;;;;;3.22;1.90;;;;;;;11.99;62.33;95074.25;5096425;28;20020;-73
2022/10/14 02:30:22;;;;;;;3.17;1.58;;;;;;;11.90;62.19;95062.84;5093443;28;20460;-72
2022/10/14 02:32:48;;;;;;;3.08;1.60;;;;;;;11.97;62.11;95074.38;5076016;28;20092;-73
2022/10/14 02:35:14;;;;;;;3.00;1.77;;;;;;;12.00;61.83;95063.69;5092553;28;20039;-72
2022/10/14 02:37:40;;;;;;;3.13;1.50;;;;;;;12.00;62.00;95074.13;5092907;28;20458;-72
2022/10/14 02:40:10;;;;;;;2.72;1.67;;;;;;;12.10;61.87;95078.56;5110022;28;20027;-72
2022/10/14 02:42:36;;;;;;;3.03;1.73;;;;;;;11.99;61.92;95045.63;5092981;28;20035;-72
2022/10/14 02:45:02;;;;;;;4.03;1.65;;;;;;;12.20;62.13;95074.19;5109450;28;20507;-72
2022/10/14 02:47:27;;;;;;;2.25;1.58;;;;;;;12.17;61.85;95070.06;5111280;28;20504;-72
2022/10/14 02:49:53;;;;;;;3.10;1.90;;;;;;;12.15;61.75;95069.41;5092636;28;20067;-73
2022/10/14 02:52:18;;;;;;;2.97;1.95;;;;;;;12.07;61.98;95062.25;5109960;28;20446;-72
2022/10/14 02:54:44;;;;;;;2.55;1.80;;;;;;;12.02;62.07;95059.19;5109919;28;20034;-72
2022/10/14 02:57:09;;;;;;;2.17;1.67;;;;;;;12.02;61.83;95047.97;5109502;28;20098;-72
2022/10/14 02:59:35;;;;;;;3.95;1.95;;;;;;;12.08;62.01;95042.22;5109357;28;20051;-73
2022/10/14 03:02:00;;;;;;;3.20;2.10;;;;;;;12.18;61.86;95057.91;5093210;28;20032;-72
2022/10/14 03:04:26;;;;;;;3.17;1.90;;;;;;;12.15;61.89;95052.97;5111209;28;20038;-73
2022/10/14 03:06:52;;;;;;;3.28;2.13;;;;;;;12.02;62.35;95048.78;5109583;28;20023;-72
2022/10/14 03:09:18;;;;;;;2.85;2.08;;;;;;;12.08;62.42;95050.84;5108830;28;20043;-72
2022/10/14 03:11:43;;;;;;;2.78;2.00;;;;;;;12.01;62.45;95048.94;5109775;28;20458;-73
2022/10/14 03:14:09;;;;;;;3.00;1.90;;;;;;;12.08;62.50;95053.47;5109451;28;20032;-72
2022/10/14 03:16:34;;;;;;;3.78;2.05;;;;;;;12.12;62.22;95055.81;5110706;28;20019;-72
2022/10/14 03:19:00;;;;;;;5.10;1.95;;;;;;;11.99;62.47;95050.81;5110485;28;20085;-73
2022/10/14 03:21:25;;;;;;;2.28;1.60;;;;;;;11.99;62.42;95056.84;5109689;28;20020;-73
2022/10/14 03:23:51;;;;;;;4.07;1.90;;;;;;;12.01;62.22;95046.31;5110836;28;20412;-72
2022/10/14 03:26:17;;;;;;;3.35;1.98;;;;;;;12.06;62.16;95057.16;5094200;28;20019;-73
2022/10/14 03:28:42;;;;;;;3.42;2.30;;;;;;;11.80;62.46;95023.69;5114145;28;20028;-72
2022/10/14 03:31:08;;;;;;;2.17;1.98;;;;;;;11.97;62.69;95042.31;5114613;28;20032;-72
2022/10/14 03:33:33;;;;;;;3.28;2.00;;;;;;;11.95;62.56;95031.19;5113353;28;20035;-72
2022/10/14 03:35:59;;;;;;;2.80;2.00;;;;;;;12.01;62.64;95054.94;5112617;28;20035;-72
2022/10/14 03:38:25;;;;;;;2.83;2.20;;;;;;;11.96;62.58;95051.91;5114450;28;20023;-72
2022/10/14 03:40:50;;;;;;;2.72;2.33;;;;;;;11.98;62.76;95044.81;5113320;28;20036;-72
2022/10/14 03:43:15;;;;;;;3.10;2.40;;;;;;;12.01;62.83;95049.75;5112879;28;20027;-73
2022/10/14 03:45:43;;;;;;;3.53;3.13;;;;;;;11.95;62.69;95036.41;5114288;28;20023;-72
2022/10/14 03:48:08;;;;;;;2.72;2.50;;;;;;;12.03;62.70;95037.41;5096295;28;20071;-72
2022/10/14 03:50:34;;;;;;;3.33;3.00;;;;;;;12.06;62.82;95042.38;5095998;28;20055;-72
2022/10/14 03:52:59;;;;;;;3.45;2.92;;;;;;;12.07;62.72;95044.00;5095458;28;20038;-73
2022/10/14 03:55:25;;;;;;;2.75;2.55;;;;;;;11.77;63.13;95015.34;5114512;28;20482;-73
2022/10/14 03:57:50;;;;;;;3.63;2.92;;;;;;;11.87;63.31;95037.06;5113923;28;22372;-72
2022/10/14 04:00:16;;;;;;;3.25;2.72;;;;;;;12.03;63.20;95047.81;5095673;28;20042;-73
2022/10/14 04:02:41;;;;;;;4.13;3.03;;;;;;;12.03;63.23;95037.41;5114082;28;20409;-72
2022/10/14 04:05:07;;;;;;;2.58;2.35;;;;;;;12.01;63.20;95039.31;5112633;28;20032;-72
2022/10/14 04:07:33;;;;;;;4.28;2.83;;;;;;;12.04;63.26;95038.25;5113626;28;20046;-72
2022/10/14 04:09:58;;;;;;;3.78;2.85;;;;;;;11.95;63.66;95026.00;5112659;28;20040;-72
2022/10/14 04:12:23;;;;;;;3.30;2.92;;;;;;;12.08;63.17;95026.59;5112742;28;20044;-72
2022/10/14 04:14:49;;;;;;;3.83;3.38;;;;;;;12.06;63.36;95033.72;5113620;28;20036;-72
2022/10/14 04:17:14;;;;;;;4.05;3.20;;;;;;;12.11;63.02;95038.53;5113629;28;20027;-72
2022/10/14 04:19:40;;;;;;;3.42;3.13;;;;;;;11.94;63.38;95032.97;5113549;28;20036;-72
2022/10/14 04:22:05;;;;;;;4.07;3.35;;;;;;;11.87;63.73;95018.84;5112173;28;20439;-72
2022/10/14 04:24:31;;;;;;;4.55;3.20;;;;;;;11.89;63.61;95027.34;5095175;28;20031;-72
2022/10/14 04:26:56;;;;;;;3.30;3.00;;;;;;;11.72;63.91;95018.31;5112339;28;20028;-72
2022/10/14 04:29:22;;;;;;;3.35;3.00;;;;;;;11.89;63.57;95024.72;5112429;28;20036;-72
2022/10/14 04:31:47;;;;;;;4.15;3.00;;;;;;;11.90;63.44;95030.78;5112507;28;20036;-72
2022/10/14 04:34:13;;;;;;;3.88;3.20;;;;;;;11.84;63.63;95024.28;5113524;28;20032;-72
2022/10/14 04:36:38;;;;;;;4.15;3.40;;;;;;;11.91;63.25;95022.84;5094911;28;20027;-72
2022/10/14 04:39:04;;;;;;;3.90;3.15;;;;;;;11.91;63.23;95015.03;5094974;28;20035;-72
2022/10/14 04:41:30;;;;;;;3.72;2.88;;;;;;;11.82;63.16;95007.97;5095163;28;20020;-72
2022/10/14 04:43:55;;;;;;;3.35;2.42;;;;;;;11.88;63.03;95011.88;5094567;28;20043;-73
2022/10/14 04:46:21;;;;;;;3.20;2.50;;;;;;;11.83;62.84;95014.81;5095118;28;20032;-72
2022/10/14 04:48:47;;;;;;;3.88;3.05;;;;;;;11.88;62.88;95015.28;5077778;28;20035;-73
2022/10/14 04:51:12;;;;;;;3.05;2.53;;;;;;;11.79;62.84;95013.44;5111810;28;20044;-73
2022/10/14 04:53:38;;;;;;;3.22;2.92;;;;;;;11.94;62.55;95017.34;5112735;28;20455;-72
2022/10/14 04:56:03;;;;;;;4.25;2.50;;;;;;;11.85;62.60;95013.75;5110925;28;20039;-72
2022/10/14 04:58:29;;;;;;;2.85;2.55;;;;;;;11.81;62.92;95016.72;5111097;28;20024;-72
2022/10/14 05:00:54;;;;;;;4.15;2.30;;;;;;;11.84;62.65;95024.28;5111268;28;20027;-72
2022/10/14 05:03:20;;;;;;;2.50;2.30;;;;;;;11.88;62.39;95020.50;5094627;28;20417;-72
2022/10/14 05:05:45;;;;;;;4.28;2.85;;;;;;;11.90;62.58;95013.38;5111515;28;20406;-73
2022/10/14 05:08:11;;;;;;;4.25;2.70;;;;;;;11.81;62.68;95008.91;5093653;28;20058;-72
2022/10/14 05:10:37;;;;;;;3.88;2.90;;;;;;;11.81;62.77;95003.69;5111216;28;20032;-72
2022/10/14 05:13:03;;;;;;;3.35;2.90;;;;;;;11.84;62.75;95012.09;5094433;28;20077;-73
2022/10/14 05:15:28;;;;;;;3.53;3.15;;;;;;;11.83;62.64;94997.41;5094622;28;20118;-73
2022/10/14 05:17:54;;;;;;;3.00;2.60;;;;;;;11.66;63.29;95003.22;5111277;28;20027;-72
2022/10/14 05:20:19;;;;;;;4.30;2.92;;;;;;;11.69;63.39;95008.16;5112648;28;20031;-73
2022/10/14 05:22:45;;;;;;;4.45;2.97;;;;;;;11.60;63.72;95001.97;5110974;28;20433;-72
2022/10/14 05:25:10;;;;;;;3.30;3.00;;;;;;;11.77;63.22;95000.53;5094553;27;20085;-73
2022/10/14 05:27:36;;;;;;;5.05;2.80;;;;;;;11.77;62.97;94995.34;5120687;27;20019;-72
2022/10/14 05:30:01;;;;;;;4.82;2.92;;;;;;;11.73;63.29;94999.16;5094265;28;20100;-73
2022/10/14 05:32:27;;;;;;;4.88;3.40;;;;;;;11.85;63.18;95012.91;5112857;27;20034;-73
2022/10/14 05:34:53;;;;;;;4.40;3.63;;;;;;;11.88;63.08;95007.47;5114411;27;20080;-72
2022/10/14 05:37:18;;;;;;;6.72;3.60;;;;;;;11.87;62.67;95007.59;5114571;27;20038;-73
2022/10/14 05:39:43;;;;;;;5.88;3.80;;;;;;;11.93;62.61;95013.13;5131318;27;20042;-72
2022/10/14 05:42:09;;;;;;;3.72;3.05;;;;;;;11.93;61.78;94999.28;5117694;27;20538;-72
2022/10/14 05:44:34;;;;;;;3.10;2.80;;;;;;;11.99;61.28;95019.59;5130865;27;20046;-72
2022/10/14 05:47:00;;;;;;;3.90;3.05;;;;;;;12.07;60.94;95023.19;5131379;27;20019;-73
2022/10/14 05:49:25;;;;;;;3.28;2.63;;;;;;;12.04;60.84;95018.22;5130585;27;20424;-72
2022/10/14 05:51:51;;;;;;;4.53;3.03;;;;;;;11.83;61.83;95020.84;5131320;27;20030;-73
2022/10/14 05:54:16;;;;;;;3.60;3.10;;;;;;;11.87;61.43;95010.19;5132359;27;20042;-72
2022/10/14 05:56:42;;;;;;;4.13;2.88;;;;;;;12.02;61.42;95020.13;5131092;27;20511;-72
2022/10/14 05:59:10;;;;;;;5.72;3.70;;;;;;;12.14;61.45;95028.69;5132436;27;20088;-72
2022/10/14 06:01:37;;;;;;;4.15;3.75;;;;;;;12.13;61.52;95018.41;5131174;27;20039;-72
2022/10/14 06:04:02;;;;;;;4.72;3.85;;;;;;;12.19;61.35;95023.09;5103462;28;20077;-72
2022/10/14 06:06:28;;;;;;;4.32;3.92;;;;;;;12.22;61.21;95034.06;5076638;28;20027;-73
2022/10/14 06:08:54;;;;;;;4.03;3.50;;;;;;;12.17;60.80;95019.78;5089906;28;20609;-72
2022/10/14 06:11:19;;;;;;;5.13;3.30;;;;;;;12.28;60.61;95027.50;5097118;28;20023;-72
2022/10/14 06:13:45;;;;;;;4.25;3.15;;;;;;;12.37;60.12;95041.50;5111819;28;20401;-73
2022/10/14 06:16:10;;;;;;;6.05;2.42;;;;;;;12.41;59.40;95046.31;5111600;28;20028;-73
2022/10/14 06:18:36;;;;;;;7.85;3.38;;;;;;;12.49;59.37;95046.50;5093391;28;20049;-73
2022/10/14 06:21:02;;;;;;;4.75;2.50;;;;;;;12.47;59.09;95027.56;5092275;28;20031;-70
2022/10/14 06:23:28;;;;;;;6.28;2.78;;;;;;;12.62;58.86;95040.19;5111413;28;20024;-73
2022/10/14 06:25:53;;;;;;;5.30;2.70;;;;;;;12.51;59.38;95041.16;5100735;28;20035;-71
2022/10/14 06:28:19;;;;;;;4.75;2.60;;;;;;;12.42;58.93;95011.50;5089770;28;20031;-70
2022/10/14 06:30:51;;;;;;;3.55;2.33;;;;;;;12.71;58.36;95044.63;5074119;28;20401;-72
2022/10/14 06:33:17;;;;;;;3.80;3.13;;;;;;;12.78;58.67;95045.72;5091696;28;20020;-72
2022/10/14 06:35:42;;;;;;;4.18;3.78;;;;;;;12.79;58.50;95044.78;5096338;28;20055;-73
2022/10/14 06:38:08;;;;;;;3.78;2.90;;;;;;;12.73;58.16;95043.53;5096738;28;20024;-72
2022/10/14 06:40:34;;;;;;;5.65;3.17;;;;;;;12.78;58.36;95045.72;5100832;28;20027;-69
2022/10/14 06:42:59;;;;;;;4.35;3.55;;;;;;;12.82;58.47;95043.69;5098112;28;20027;-70
2022/10/14 06:45:25;;;;;;;3.80;3.38;;;;;;;12.84;58.20;95047.81;5109776;28;20477;-70
2022/10/14 06:47:50;;;;;;;6.20;3.85;;;;;;;12.84;57.85;95032.16;5092880;28;20409;-69
2022/10/14 06:50:16;;;;;;;4.30;3.90;;;;;;;12.87;58.05;95047.53;5111083;28;20044;-69
2022/10/14 06:52:44;;;;;;;4.10;3.45;;;;;;;12.90;57.77;95041.22;5111749;28;20020;-69
2022/10/14 06:55:09;;;;;;;4.22;3.83;;;;;;;12.96;57.79;95036.28;5110036;28;20059;-70
2022/10/14 06:57:35;;;;;;;5.30;3.88;;;;;;;12.92;57.64;95027.06;5109691;28;20028;-69
2022/10/14 07:00:00;;;;;;;4.18;3.65;;;;;;;13.02;58.00;95041.91;5109891;28;20031;-69
2022/10/14 07:02:26;;;;;;;4.35;3.80;;;;;;;13.12;56.98;95050.56;5112750;28;20519;-70
2022/10/14 07:04:51;;;;;;;4.55;3.80;;;;;;;13.17;56.41;95041.34;5103045;28;20114;-69
2022/10/14 07:07:16;;;;;;;4.32;3.70;;;;;;;13.11;56.39;95033.28;5109887;28;20036;-70
2022/10/14 07:09:42;;;;;;;4.20;3.80;;;;;;;13.14;56.92;95044.25;5115262;27;20032;-70
2022/10/14 07:12:07;;;;;;;4.75;4.25;;;;;;;13.18;56.34;95039.59;5115372;28;20016;-70
2022/10/14 07:14:33;;;;;;;4.80;4.30;;;;;;;13.23;57.07;95041.78;5115238;28;20093;-70
2022/10/14 07:16:59;;;;;;;4.38;3.97;;;;;;;13.34;56.18;95044.28;5096818;28;20016;-70
2022/10/14 07:19:24;;;;;;;4.50;3.90;;;;;;;13.20;56.44;95024.59;5115010;28;20090;-70
2022/10/14 07:21:50;;;;;;;4.50;3.90;;;;;;;13.19;56.15;95042.06;5115123;28;20481;-70
2022/10/14 07:24:15;;;;;;;4.85;4.20;;;;;;;13.17;56.38;95037.94;5094447;28;20495;-70
2022/10/14 07:26:41;;;;;;;5.68;4.07;;;;;;;13.21;56.05;95034.09;5096322;28;20034;-69
2022/10/14 07:29:06;;;;;;;4.93;4.35;;;;;;;13.20;56.36;95037.66;5094491;28;20104;-69
2022/10/14 07:31:33;;;;;;;5.85;4.20;;;;;;;13.27;55.21;95038.78;5112977;28;20028;-69
2022/10/14 07:33:58;;;;;;;4.28;3.83;;;;;;;13.34;55.44;95039.88;5114656;28;20039;-70
2022/10/14 07:36:24;;;;;;;4.57;3.92;;;;;;;13.03;55.52;95020.09;5112981;28;20027;-70
2022/10/14 07:38:49;;;;;;;5.65;3.95;;;;;;;13.21;55.36;95034.09;5111716;27;20484;-70
2022/10/14 07:41:20;;;;;;;4.40;3.90;;;;;;;13.30;55.22;95042.91;5104600;28;20417;-70
2022/10/14 07:43:47;;;;;;;4.30;3.90;;;;;;;13.46;55.19;95042.38;5091249;28;20039;-69
2022/10/14 07:46:13;;;;;;;5.47;4.50;;;;;;;13.47;55.65;95031.78;5096935;27;20059;-71
2022/10/14 07:48:39;;;;;;;4.30;3.90;;;;;;;13.53;55.26;95043.44;5108199;28;20468;-70
2022/10/14 07:51:06;;;;;;;4.80;4.30;;;;;;;13.66;55.32;95048.38;5075699;28;20460;-69
2022/10/14 07:53:31;;;;;;;4.78;4.20;;;;;;;13.72;54.90;95022.53;5076650;28;20058;-70
2022/10/14 07:55:57;;;;;;;5.53;4.05;;;;;;;13.86;54.57;95037.72;5092609;28;20028;-70
2022/10/14 07:58:25;;;;;;;4.70;3.90;;;;;;;13.93;53.72;95037.16;5076630;28;20047;-71
2022/10/14 08:00:50;;;;;;;3.90;3.40;;;;;;;13.90;53.10;95027.00;5076243;28;20075;-71
2022/10/14 08:03:17;;;;;;;4.25;3.85;;;;;;;13.93;53.50;95039.78;5091714;28;20094;-71
2022/10/14 08:05:42;;;;;;;3.55;2.83;;;;;;;13.75;52.15;95032.69;5075706;28;20481;-70
2022/10/14 08:08:08;;;;;;;3.95;3.22;;;;;;;13.94;51.96;95042.25;5075639;28;20039;-70
2022/10/14 08:10:34;;;;;;;5.80;3.58;;;;;;;13.96;52.30;95036.91;5093586;28;20386;-70
2022/10/14 08:13:00;;;;;;;3.92;2.92;;;;;;;13.98;51.68;95025.31;5091820;28;20031;-71
2022/10/14 08:15:29;;;;;;;3.30;2.80;;;;;;;14.07;50.59;95036.72;5093908;28;20451;-70
2022/10/14 08:17:55;;;;;;;3.90;2.70;;;;;;;14.12;51.04;95028.44;5092256;28;20027;-70
2022/10/14 08:20:21;;;;;;;3.60;2.88;;;;;;;14.08;51.18;95033.13;5092238;28;20520;-70
2022/10/14 08:22:47;;;;;;;3.90;3.10;;;;;;;14.11;51.97;95032.03;5075345;28;20099;-70
2022/10/14 08:25:13;;;;;;;3.03;2.72;;;;;;;13.97;51.48;95036.75;5093209;28;20036;-70
2022/10/14 08:27:38;;;;;;;3.13;2.40;;;;;;;13.85;51.57;95027.44;5091969;28;20035;-70
2022/10/14 08:30:04;;;;;;;3.60;3.00;;;;;;;14.02;51.51;95023.28;5091946;28;20032;-70
2022/10/14 08:32:30;;;;;;;3.67;2.75;;;;;;;14.25;51.63;95035.00;5093085;28;20031;-70
2022/10/14 08:34:56;;;;;;;3.22;2.78;;;;;;;14.29;51.69;95028.53;5091926;28;20085;-70
2022/10/14 08:37:21;;;;;;;4.03;2.10;;;;;;;14.43;48.83;95026.38;5093033;28;20034;-72
2022/10/14 08:39:47;;;;;;;3.63;2.90;;;;;;;14.56;50.12;95029.50;5074835;28;20100;-70
2022/10/14 08:42:42;;;;;;;3.20;2.60;;;;;;;14.78;49.93;95030.09;5091838;28;20409;-70
2022/10/14 08:45:24;;;;;;;3.65;2.80;;;;;;;14.83;49.62;95030.47;5093228;28;20054;-71
2022/10/14 08:47:49;;;;;;;;;;;;;;;14.91;49.52;95031.38;5076100;28;20028;-70
2022/10/14 08:50:21;;;;;;;3.92;2.38;;;;;;;14.88;48.14;95034.28;5091395;28;19927;-70
2022/10/14 08:52:53;;;;;;;4.75;2.75;;;;;;;14.90;47.72;95034.13;5091481;28;20020;-71
2022/10/14 08:55:24;;;;;;;3.25;2.20;;;;;;;14.85;47.53;95046.81;5075020;28;20132;-70
2022/10/14 08:57:54;;;;;;;4.72;2.55;;;;;;;14.98;47.66;95039.44;5092650;28;20020;-70
2022/10/14 09:00:20;;;;;;;3.45;2.55;;;;;;;14.85;47.56;95020.66;5091447;28;20035;-70
2022/10/14 09:02:47;;;;;;;4.40;2.60;;;;;;;15.05;47.52;95026.59;5074467;28;20134;-70
2022/10/14 09:05:18;;;;;;;2.90;2.30;;;;;;;15.10;46.92;95027.78;5074666;28;20035;-71
2022/10/14 09:07:44;;;;;;;;;;;;;;;15.11;46.45;95031.22;5058331;28;20489;-70
2022/10/14 09:10:31;;;;;;;2.85;2.08;;;;;;;14.93;47.09;95025.97;5091317;28;19955;-70
2022/10/14 09:12:59;;;;;;;2.80;2.00;;;;;;;14.82;46.95;95031.41;5091154;28;20051;-70
2022/10/14 09:15:39;;;;;;;4.65;2.28;;;;;;;14.89;47.88;95022.03;5074621;28;20044;-70
2022/10/14 09:18:06;;;;;;;3.15;1.63;;;;;;;14.87;45.87;95026.56;5074778;28;20031;-70
2022/10/14 09:20:32;;;;;;;3.20;2.35;;;;;;;14.91;46.53;95014.84;5091044;28;20115;-70
2022/10/14 09:23:03;;;;;;;2.75;2.13;;;;;;;15.23;45.54;95024.78;5073814;28;20126;-70
2022/10/14 09:25:30;;;;;;;2.60;2.03;;;;;;;15.41;45.02;95024.78;5092103;28;20489;-71
2022/10/14 09:27:55;;;;;;;3.00;2.15;;;;;;;15.56;44.98;95028.50;5074137;28;20460;-71
2022/10/14 09:30:21;;;;;;;3.50;2.28;;;;;;;15.74;44.63;95019.81;5092399;28;20039;-71
2022/10/14 09:32:51;;;;;;;3.47;2.22;;;;;;;15.60;45.61;95022.00;5074054;28;20032;-71
2022/10/14 09:35:31;;;;;;;4.53;2.65;;;;;;;15.84;45.69;95013.50;5092328;28;20043;-70
2022/10/14 09:37:56;;;;;;;2.60;2.25;;;;;;;16.05;45.13;94993.97;5074860;28;20103;-70
2022/10/14 09:40:29;;;;;;;3.50;2.25;;;;;;;16.10;44.37;95015.28;5073826;28;20103;-70
2022/10/14 09:42:55;;;;;;;2.60;2.22;;;;;;;16.23;43.83;95009.59;5090622;28;20043;-70
2022/10/14 09:45:24;;;;;;;2.78;2.28;;;;;;;16.23;42.96;95007.81;5092072;28;20020;-71
2022/10/14 09:47:55;;;;;;;3.85;2.08;;;;;;;15.94;42.46;95016.03;5074035;28;20066;-71
2022/10/14 09:50:22;;;;;;;6.15;2.47;;;;;;;16.04;43.63;95013.28;5091697;28;20055;-70
2022/10/14 09:52:54;;;;;;;3.75;2.40;;;;;;;15.94;43.50;95023.06;5073723;28;20028;-70
2022/10/14 09:55:20;;;;;;;3.75;2.22;;;;;;;15.85;43.30;95014.31;5074322;28;20036;-70
2022/10/14 09:57:46;;;;;;;3.88;2.40;;;;;;;15.82;43.34;95010.22;5091587;28;20512;-70
2022/10/14 10:00:27;;;;;;;2.65;2.15;;;;;;;15.70;43.57;94995.72;5090206;28;20040;-70
2022/10/14 10:02:54;;;;;;;3.47;2.50;;;;;;;15.48;44.01;95011.91;5090311;28;20111;-70
2022/10/14 10:05:32;;;;;;;3.25;2.50;;;;;;;15.74;44.49;95015.41;5090200;28;20054;-70
2022/10/14 10:08:18;;;;;;;3.55;2.30;;;;;;;15.95;43.08;95009.78;5090258;28;20516;-70
2022/10/14 10:10:59;;;;;;;3.67;2.22;;;;;;;16.01;43.17;95009.16;5090887;28;20068;-70
2022/10/14 10:13:38;;;;;;;3.50;2.50;;;;;;;15.77;43.36;95012.47;5091349;28;20061;-70
2022/10/14 10:16:06;;;;;;;4.13;2.63;;;;;;;16.03;43.65;95009.84;5091197;28;20127;-70
2022/10/14 10:18:32;;;;;;;3.22;2.50;;;;;;;16.09;44.12;95009.22;5091151;28;20020;-70
2022/10/14 10:21:28;;;;;;;2.95;2.47;;;;;;;16.29;44.31;95001.94;5091372;28;20035;-70
2022/10/14 10:24:01;;;;;;;3.55;2.30;;;;;;;15.98;42.94;94992.94;5075091;28;20111;-70
2022/10/14 10:26:32;;;;;;;2.92;2.30;;;;;;;16.14;42.66;94987.78;5073969;28;20082;-70
2022/10/14 10:28:58;;;;;;;;;;;;;;;16.11;41.61;94997.78;5073532;28;20035;-70
2022/10/14 10:31:46;;;;;;;2.72;2.00;;;;;;;15.81;42.77;95003.31;5089770;28;20401;-71
2022/10/14 10:34:29;;;;;;;2.95;2.08;;;;;;;15.75;43.45;94983.00;5089722;28;20040;-71
2022/10/14 10:37:03;;;;;;;2.53;1.90;;;;;;;15.90;43.15;94980.63;5089808;28;20103;-70
2022/10/14 10:39:41;;;;;;;3.63;1.90;;;;;;;15.74;41.83;94970.88;5073375;28;20032;-70
2022/10/14 10:42:12;;;;;;;3.33;1.65;;;;;;;15.96;41.12;94973.94;5073713;28;20120;-70
2022/10/14 10:44:48;;;;;;;1.80;1.40;;;;;;;15.58;41.41;94982.03;5089766;28;20028;-70
2022/10/14 10:47:17;;;;;;;3.40;1.75;;;;;;;15.78;40.69;94980.06;5073409;28;20032;-70
2022/10/14 10:49:48;;;;;;;2.40;1.27;;;;;;;15.41;39.67;94975.06;5090697;28;20059;-70
2022/10/14 10:52:33;;;;;;;4.43;1.60;;;;;;;15.13;40.49;94982.19;5089576;28;20054;-71
2022/10/14 10:55:21;;;;;;;2.42;1.30;;;;;;;15.30;41.27;94976.13;5089495;28;20403;-70
2022/10/14 10:58:16;;;;;;;5.18;1.17;;;;;;;15.49;38.72;94971.66;5089488;28;20169;-70
2022/10/14 11:01:21;;;;;;;2.15;0.90;;;;;;;15.52;36.55;94971.38;5089645;28;20043;-70
2022/10/14 11:04:01;;;;;;;1.92;0.98;;;;;;;15.60;37.04;94964.38;5075178;28;20115;-70
2022/10/14 11:12:42;;;;;;;1.50;0.93;;;;;;;16.17;36.00;94968.31;5089823;28;20066;-70
2022/10/14 11:15:12;;;;;;;1.60;1.00;;;;;;;16.13;35.98;94952.09;5089456;28;20182;-72
2022/10/14 11:17:40;;;;;;;2.38;1.10;;;;;;;16.19;36.49;94954.06;5089478;28;20054;-70
2022/10/14 11:20:13;;;;;;;2.83;1.00;;;;;;;16.26;36.29;94947.19;5090793;28;20482;-70
2022/10/14 11:22:57;;;;;;;2.65;1.00;;;;;;;16.32;36.49;94940.50;5089363;28;20031;-70
2022/10/14 11:25:37;;;;;;;1.23;0.70;;;;;;;16.43;32.66;94940.22;5090891;28;20371;-70
2022/10/14 11:28:09;;;;;;;2.72;0.77;;;;;;;16.26;32.25;94928.84;5089370;28;20578;-70
2022/10/14 11:30:50;;;;;;;1.58;0.88;;;;;;;16.09;34.63;94927.16;5072472;28;20516;-70
2022/10/14 11:33:23;;;;;;;2.75;0.70;;;;;;;16.31;33.41;94915.28;5089239;28;20028;-70
2022/10/14 11:36:02;;;;;;;2.28;0.90;;;;;;;16.39;34.15;94907.44;5089315;28;20081;-71
2022/10/14 11:38:33;;;;;;;1.45;0.80;;;;;;;16.52;32.49;94913.06;5056531;28;20124;-70
2022/10/14 11:41:16;;;;;;;1.30;0.70;;;;;;;16.56;33.38;94905.69;5090222;28;20039;-70
2022/10/14 11:44:07;;;;;;;1.52;0.80;;;;;;;16.71;32.46;94911.09;5073484;28;20052;-70
2022/10/14 11:46:35;;;;;;;1.53;0.80;;;;;;;16.68;31.90;94891.25;5089412;28;20024;-70
2022/10/14 11:49:04;;;;;;;1.48;0.75;;;;;;;16.72;30.36;94892.59;5075873;28;20106;-70